Архив погоды в Дно

Метеограмма Дно
Понедельник, 25 Мая
Время местн. Темп Ветер Видим Явления Облачность нижн/средн/верх Атм. давл. Влжн Точка росы ВНГО R Сост. почвы Tg s
Напр Скр Прв ур.ст ур.м изм
18:00 - +19.7° З,Ю-З 2 - - - - 761 767 +0.8 28% +0.8° - - - - -
15:00 - +19.6° С-З 2 - - - - 761 766 +0.5 24% -1.4° - - - - -
12:00 - +18.9° Ю 1 - - - - 760 766 +1 28% +0.1° - - - - -
09:00 +16.9° З 1 - 50 км - облачно 759 765 +0.8 35% +1.5° более 2.5 км 0 Влажная (без луж) - -
06:00 - +4° штиль 0 - - - - 758 764 +0.8 98% +3.7° - - - - -
03:00 - +1.9° штиль 0 - - - - 758 764 +0.3 97% +1.5° - - - - -
00:00 - +3.1° штиль 0 - - - - 757 763 +0.4 94% +2.2° - - - - -
Воскресенье, 24 Мая
Время местн. Темп Ветер Видим Явления Облачность нижн/средн/верх Атм. давл. Влжн Точка росы ВНГО R Сост. почвы Tg s
Напр Скр Прв ур.ст ур.м изм
21:00 +12.2° С-В 1 - 50 км - преимущественно облачно 757 763 +0.3 63% +5.3° более 2.5 км 0 - - -
18:00 - +19.2° С 1 - - - - 757 762 -0.5 23% -2.5° - - - - -
15:00 - +18.6° С,С-З 2 - - - - 757 763 -0.8 24% -2.3° - - - - -
12:00 - +16.7° З,С-З 2 - - - - 758 764 -0.5 27% -2.6° - - - - -
09:00 +14° С-В 1 - 50 км - переменная облачность 758 764 -0.7 45% +2.3° более 2.5 км 0 Влажная (без луж) - -
06:00 - +1.9° штиль 0 - - - - 759 765 -0.8 98% +1.6° - - - - -
03:00 - -1.4° штиль 0 - - - - 760 766 -0.3 97% -1.8° - - - - -
00:00 - +1° штиль 0 - - - - 760 766 +0.1 93% - - - - -
Суббота, 23 Мая
Время местн. Темп Ветер Видим Явления Облачность нижн/средн/верх Атм. давл. Влжн Точка росы ВНГО R Сост. почвы Tg s
Напр Скр Прв ур.ст ур.м изм
21:00 +12.8° В 2 - 50 км - ясно 760 766 -0.6 34% -2.8° более 2.5 км 0 - - -
18:00 - +17.2° С,С-В 2 - - - - 761 766 0 22% -4.5° - - - - -
15:00 - - - - - - - - - 0 100% - - - - -
12:00 - +14.5° С,С-В 4 - - - - 762 768 -0.3 29% -3.5° - - - - -
09:00 +10° С 2 - 50 км - ясно 762 768 +0.2 49% -0.2° более 2.5 км 0 Влажная (без луж) - -
06:00 - +2.2° С 1 - - - - 762 768 +0.7 94% +1.4° - - - - -
03:00 - +0.3° З 1 - - - - 762 768 +0.5 94% -0.6° - - - - -
00:00 - +7.9° С 2 - - - - 761 767 +0.8 61% +0.9° - - - - -
Пятница, 22 Мая
Время местн. Темп Ветер Видим Явления Облачность нижн/средн/верх Атм. давл. Влжн Точка росы ВНГО R Сост. почвы Tg s
Напр Скр Прв ур.ст ур.м изм
21:00 +10.5° С 3 - 50 км - облачно 760 766 +0.9 52% +1.1° 1 км 0 - - -
18:00 - +12.3° С 3 - - - - 759 765 +0.1 43% +0.1° - - - - -
15:00 - +11.9° С 3 - - - - 759 765 +0.2 44% - - - - -